Time;durP1;ratioP1;P1;durP2;ratioP2;P2;SDS_P1;SDS_P2;PMS_P1;PMS_P2;Temp;Humidity;BMP_temperature;BMP_pressure;BME280_temperature;BME280_humidity;BME280_pressure;Samples;Min_cycle;Max_cycle;Signal;HPM_P1;HPM_P2
2021/04/21 00:01:50;;;;;;;;;;;;;;;7.10;65.45;100563.13;1631379;86;20493;-73
2021/04/21 00:04:16;;;;;;;;;;;;;;;7.07;65.44;100562.27;1628758;86;20302;-73
2021/04/21 00:06:44;;;;;;;;;;;;;;;7.06;65.48;100555.42;1646228;85;20315;-74
2021/04/21 00:09:12;;;;;;;;;;;;;;;6.98;65.38;100556.30;1655360;86;20979;-74
2021/04/21 00:11:39;;;;;;;;;;;;;;;6.93;65.47;100558.45;1631233;85;20259;-73
2021/04/21 00:14:05;;;;;;;;;;;;;;;6.85;65.22;100559.74;1664992;84;20257;-73
2021/04/21 00:16:33;;;;;;;;;;;;;;;6.78;65.58;100554.19;1608283;83;5001117;-73
2021/04/21 00:19:00;;;;;;;;;;;;;;;6.77;65.75;100552.91;1695210;82;20449;-73
2021/04/21 00:21:26;;;;;;;;;;;;;;;6.73;65.78;100548.66;1697842;83;20552;-73
2021/04/21 00:24:08;;;;;;;;;;;;;;;6.74;65.94;100549.94;1677290;82;572298;-73
2021/04/21 00:26:34;;;;;;;;;;;;;;;6.74;65.83;100549.08;1692809;83;20291;-73
2021/04/21 00:29:01;;;;;;;;;;;;;;;6.74;65.89;100551.66;1710357;82;20274;-73
2021/04/21 00:31:27;;;;;;;;;;;;;;;6.72;65.96;100550.38;1670360;82;20313;-73
2021/04/21 00:33:58;;;;;;;;;;;;;;;6.71;65.94;100544.80;1703586;83;20294;-73
2021/04/21 00:36:25;;;;;;;;;;;;;;;6.70;66.02;100543.52;1682138;84;20301;-73
2021/04/21 00:38:52;;;;;;;;;;;;;;;6.68;66.06;100540.95;1699755;83;20282;-73
2021/04/21 00:41:28;;;;;;;;;;;;;;;6.65;65.95;100540.95;1699760;83;20282;-73
2021/04/21 00:44:14;;;;;;;;;;;;;;;6.63;66.06;100540.11;1694021;83;20298;-73
2021/04/21 00:46:45;;;;;;;;;;;;;;;6.59;66.14;100537.97;1698055;84;20562;-73
2021/04/21 00:49:38;;;;;;;;;;;;;;;6.57;66.19;100535.83;1699277;84;20290;-73
2021/04/21 00:52:15;;;;;;;;;;;;;;;6.55;66.20;100533.69;1676301;84;21006;-74
2021/04/21 00:55:12;;;;;;;;;;;;;;;6.53;66.23;100528.13;1689557;84;20318;-74
2021/04/21 00:57:47;;;;;;;;;;;;;;;6.48;66.33;100527.27;1688523;84;20282;-74
2021/04/21 01:00:20;;;;;;;;;;;;;;;6.46;66.27;100528.98;1681849;84;20309;-74
2021/04/21 01:02:50;;;;;;;;;;;;;;;6.41;66.18;100524.28;1704521;82;20501;-74
2021/04/21 01:05:18;;;;;;;;;;;;;;;6.37;66.26;100525.99;1729926;82;20296;-74
2021/04/21 01:07:47;;;;;;;;;;;;;;;6.33;66.32;100528.13;1694585;83;20310;-74
2021/04/21 01:10:15;;;;;;;;;;;;;;;6.29;66.25;100527.70;1729044;82;20302;-74
2021/04/21 01:12:43;;;;;;;;;;;;;;;6.21;66.29;100528.16;1694440;83;20305;-74
2021/04/21 01:15:12;;;;;;;;;;;;;;;6.16;66.26;100525.59;1720481;82;20304;-74
2021/04/21 01:17:40;;;;;;;;;;;;;;;6.13;66.37;100529.44;1687781;83;20337;-74
2021/04/21 01:20:15;;;;;;;;;;;;;;;6.12;66.52;100523.88;1696107;84;20199;-73
2021/04/21 01:23:03;;;;;;;;;;;;;;;6.04;66.52;100519.16;1707174;84;20489;-74
2021/04/21 01:25:36;;;;;;;;;;;;;;;6.01;66.34;100515.73;1689761;83;20310;-74
2021/04/21 01:28:05;;;;;;;;;;;;;;;5.93;66.20;100515.30;1699340;84;20278;-74
2021/04/21 01:30:34;;;;;;;;;;;;;;;5.81;66.29;100517.81;1698684;84;20195;-74
2021/04/21 01:33:05;;;;;;;;;;;;;;;5.77;66.62;100517.80;1677345;84;20318;-74
2021/04/21 01:35:32;;;;;;;;;;;;;;;5.76;66.75;100513.52;1673492;84;20675;-74
2021/04/21 01:38:02;;;;;;;;;;;;;;;5.75;66.54;100514.38;1696071;84;20304;-74
2021/04/21 01:40:31;;;;;;;;;;;;;;;5.71;66.72;100512.27;1695019;83;20274;-74
2021/04/21 01:43:04;;;;;;;;;;;;;;;5.70;66.73;100514.39;1683984;83;20265;-74
2021/04/21 01:45:30;;;;;;;;;;;;;;;5.65;66.79;100514.38;1696824;82;20292;-74
2021/04/21 01:48:02;;;;;;;;;;;;;;;5.63;66.87;100512.24;1704997;83;20282;-74
2021/04/21 01:50:28;;;;;;;;;;;;;;;5.56;66.58;100513.08;1709529;82;20340;-74
2021/04/21 01:53:19;;;;;;;;;;;;;;;5.43;66.56;100509.19;1702234;84;20309;-75
2021/04/21 01:56:03;;;;;;;;;;;;;;;5.29;66.55;100514.27;1706856;83;20325;-74
2021/04/21 01:58:34;;;;;;;;;;;;;;;5.25;67.00;100508.27;1675077;83;20288;-74
2021/04/21 02:01:25;;;;;;;;;;;;;;;5.26;67.05;100506.56;1702601;83;20293;-74
2021/04/21 02:03:56;;;;;;;;;;;;;;;5.26;67.14;100511.69;1650862;84;21041;-74
2021/04/21 02:06:40;;;;;;;;;;;;;;;5.24;67.06;100505.70;1701272;84;20529;-74
2021/04/21 02:09:12;;;;;;;;;;;;;;;5.21;67.10;100509.53;1706749;84;20530;-74
2021/04/21 02:11:42;;;;;;;;;;;;;;;5.19;67.17;100509.56;1695657;82;20271;-74
2021/04/21 02:14:17;;;;;;;;;;;;;;;5.11;67.15;100506.53;1699145;84;20580;-74
2021/04/21 02:16:56;;;;;;;;;;;;;;;5.08;67.11;100507.37;1695390;84;20293;-74
2021/04/21 02:19:32;;;;;;;;;;;;;;;5.01;67.23;100500.50;1706876;84;20594;-74
2021/04/21 02:22:18;;;;;;;;;;;;;;;5.02;67.32;100497.09;1689771;84;20312;-74
2021/04/21 02:24:57;;;;;;;;;;;;;;;5.03;67.42;100494.96;1695965;84;20277;-74
2021/04/21 02:27:33;;;;;;;;;;;;;;;5.02;67.38;100499.66;1680080;84;20280;-74
2021/04/21 02:30:05;;;;;;;;;;;;;;;4.99;67.37;100494.52;1687204;84;20294;-74
2021/04/21 02:32:34;;;;;;;;;;;;;;;4.98;67.33;100499.20;1706813;84;20211;-74
2021/04/21 02:35:16;;;;;;;;;;;;;;;4.92;67.23;100495.33;1699566;84;20285;-74
2021/04/21 02:38:06;;;;;;;;;;;;;;;4.87;67.31;100497.87;1695140;84;20303;-74
2021/04/21 02:40:48;;;;;;;;;;;;;;;4.83;67.27;100488.88;1697138;84;20279;-74
2021/04/21 02:43:35;;;;;;;;;;;;;;;4.76;67.24;100497.38;1700066;83;20294;-74
2021/04/21 02:46:13;;;;;;;;;;;;;;;4.71;67.55;100482.41;1696262;82;20306;-74
2021/04/21 02:48:44;;;;;;;;;;;;;;;4.68;67.36;100485.80;1707896;82;20205;-74
2021/04/21 02:51:18;;;;;;;;;;;;;;;4.63;67.34;100479.41;1700140;82;20262;-74
2021/04/21 02:54:22;;;;;;;;;;;;;;;4.62;67.65;100485.80;1702262;83;20317;-74
2021/04/21 02:57:04;;;;;;;;;;;;;;;4.63;67.66;100486.23;1683489;83;20633;-74
2021/04/21 02:59:43;;;;;;;;;;;;;;;4.63;67.66;100482.39;1691989;83;21016;-74
2021/04/21 03:02:29;;;;;;;;;;;;;;;4.62;67.82;100484.52;1700228;83;20317;-74
2021/04/21 03:04:59;;;;;;;;;;;;;;;4.61;67.69;100484.94;1702827;83;20335;-74
2021/04/21 03:07:34;;;;;;;;;;;;;;;4.55;67.61;100488.74;1703567;83;20513;-74
2021/04/21 03:10:04;;;;;;;;;;;;;;;4.52;67.68;100490.43;1686682;83;20313;-74
2021/04/21 03:12:32;;;;;;;;;;;;;;;4.49;67.70;100494.25;1674055;83;20289;-74
2021/04/21 03:15:02;;;;;;;;;;;;;;;4.46;67.67;100487.83;1688155;83;20302;-74
2021/04/21 03:17:28;;;;;;;;;;;;;;;4.40;67.55;100489.92;1701641;83;20289;-74
2021/04/21 03:20:12;;;;;;;;;;;;;;;4.31;67.48;100486.02;1704652;83;20280;-74
2021/04/21 03:22:39;;;;;;;;;;;;;;;4.25;67.75;100486.83;1690230;83;20160;-74
2021/04/21 03:25:12;;;;;;;;;;;;;;;4.20;67.62;100483.38;1687155;84;20256;-74
2021/04/21 03:27:44;;;;;;;;;;;;;;;4.12;67.61;100485.05;1689299;84;20282;-74
2021/04/21 03:30:13;;;;;;;;;;;;;;;4.06;67.88;100482.86;1680482;84;20290;-74
2021/04/21 03:32:45;;;;;;;;;;;;;;;4.06;68.09;100481.16;1688984;84;20266;-74
2021/04/21 03:35:13;;;;;;;;;;;;;;;4.05;68.02;100481.14;1698527;84;20234;-74
2021/04/21 03:37:55;;;;;;;;;;;;;;;4.00;68.00;100484.94;1698594;84;20132;-74
2021/04/21 03:40:21;;;;;;;;;;;;;;;3.96;68.10;100491.73;1698168;83;20168;-74
2021/04/21 03:42:48;;;;;;;;;;;;;;;3.93;67.97;100489.56;1686885;84;20447;-73
2021/04/21 03:45:15;;;;;;;;;;;;;;;3.83;67.90;100495.02;1691822;83;20248;-73
2021/04/21 03:47:43;;;;;;;;;;;;;;;3.76;68.01;100495.80;1672966;84;20241;-74
2021/04/21 03:50:11;;;;;;;;;;;;;;;3.72;67.97;100491.50;1696455;83;20196;-73
2021/04/21 03:52:40;;;;;;;;;;;;;;;3.70;68.17;100494.46;1693240;82;20257;-73
2021/04/21 03:55:09;;;;;;;;;;;;;;;3.71;68.31;100495.32;1691954;83;20176;-73
2021/04/21 03:57:38;;;;;;;;;;;;;;;3.70;68.31;100493.19;1688373;82;20260;-73
2021/04/21 04:00:05;;;;;;;;;;;;;;;3.71;68.39;100497.87;1690479;83;20280;-74
2021/04/21 04:02:34;;;;;;;;;;;;;;;3.70;68.26;100493.61;1695472;82;20301;-74
2021/04/21 04:05:01;;;;;;;;;;;;;;;3.69;68.24;100495.30;1686520;83;20457;-75
2021/04/21 04:07:28;;;;;;;;;;;;;;;3.65;68.24;100494.84;1702648;83;20243;-75
2021/04/21 04:09:57;;;;;;;;;;;;;;;3.64;68.35;100492.70;1684528;83;20281;-75
2021/04/21 04:12:25;;;;;;;;;;;;;;;3.61;68.28;100500.38;1679024;83;20283;-75
2021/04/21 04:14:54;;;;;;;;;;;;;;;3.61;68.44;100495.26;1686923;83;20191;-75
2021/04/21 04:17:22;;;;;;;;;;;;;;;3.62;68.43;100491.00;1700217;83;20270;-75
2021/04/21 04:19:49;;;;;;;;;;;;;;;3.58;68.33;100493.95;1679470;83;20282;-75
2021/04/21 04:22:18;;;;;;;;;;;;;;;3.57;68.38;100495.21;1680423;84;20269;-75
2021/04/21 04:24:56;;;;;;;;;;;;;;;3.57;68.27;100493.94;1698990;82;20495;-75
2021/04/21 04:27:23;;;;;;;;;;;;;;;3.58;68.64;100500.34;1697113;82;20270;-75
2021/04/21 04:29:51;;;;;;;;;;;;;;;3.65;68.71;100493.56;1705986;82;20191;-75
2021/04/21 04:32:19;;;;;;;;;;;;;;;3.69;68.51;100492.75;1705760;82;20275;-75
2021/04/21 04:34:50;;;;;;;;;;;;;;;3.72;68.67;100486.80;1703346;83;20310;-73
2021/04/21 04:37:18;;;;;;;;;;;;;;;3.77;68.76;100492.83;1699664;83;20248;-73
2021/04/21 04:39:46;;;;;;;;;;;;;;;3.82;68.72;100495.00;1701158;83;39903;-73
2021/04/21 04:42:13;;;;;;;;;;;;;;;3.87;68.75;100498.46;1677729;84;20277;-74
2021/04/21 04:44:41;;;;;;;;;;;;;;;3.90;68.89;100498.49;1702432;82;20278;-73
2021/04/21 04:47:10;;;;;;;;;;;;;;;3.97;68.87;100496.00;1704234;82;20275;-73
2021/04/21 04:49:43;;;;;;;;;;;;;;;4.06;69.18;100490.53;1706544;82;20273;-74
2021/04/21 04:52:13;;;;;;;;;;;;;;;4.18;69.23;100494.44;1702728;82;20490;-79
2021/04/21 04:54:40;;;;;;;;;;;;;;;4.25;69.26;100494.50;1673465;83;20395;-73
2021/04/21 04:57:07;;;;;;;;;;;;;;;4.37;69.27;100500.56;1687921;83;20428;-73
2021/04/21 04:59:34;;;;;;;;;;;;;;;4.41;69.12;100499.31;1687952;83;20260;-74
2021/04/21 05:02:00;;;;;;;;;;;;;;;4.49;69.02;100497.66;1691579;83;20278;-73
2021/04/21 05:04:38;;;;;;;;;;;;;;;4.48;68.72;100502.35;1700612;83;20251;-74
2021/04/21 05:07:06;;;;;;;;;;;;;;;4.54;68.99;100501.53;1683729;83;20267;-73
2021/04/21 05:09:43;;;;;;;;;;;;;;;4.92;69.82;100496.61;1696813;83;20476;-74
2021/04/21 05:12:12;;;;;;;;;;;;;;;5.46;69.82;100497.66;1694152;83;20283;-74
2021/04/21 05:14:43;;;;;;;;;;;;;;;6.12;69.79;100494.78;1699195;83;20277;-73
2021/04/21 05:17:35;;;;;;;;;;;;;;;6.72;69.89;100500.69;1707154;83;20279;-74
2021/04/21 05:20:25;;;;;;;;;;;;;;;7.43;70.20;100499.53;1691240;83;20179;-73
2021/04/21 05:23:15;;;;;;;;;;;;;;;8.20;69.36;100495.14;1696140;83;20279;-74
2021/04/21 05:25:47;;;;;;;;;;;;;;;8.89;69.60;100496.59;1698019;83;20258;-74
2021/04/21 05:28:23;;;;;;;;;;;;;;;9.62;69.17;100496.09;1699543;83;20254;-74
2021/04/21 05:31:11;;;;;;;;;;;;;;;10.12;68.46;100491.88;1643462;85;20289;-74
2021/04/21 05:34:11;;;;;;;;;;;;;;;10.43;68.22;100502.56;1648304;85;20280;-74
2021/04/21 05:36:53;;;;;;;;;;;;;;;10.90;68.18;100496.11;1628141;85;20484;-74
2021/04/21 05:39:45;;;;;;;;;;;;;;;11.42;68.06;100508.41;1633292;86;20280;-74
2021/04/21 05:42:41;;;;;;;;;;;;;;;11.92;67.94;100501.68;1638551;86;20252;-74
2021/04/21 05:45:45;;;;;;;;;;;;;;;12.19;67.24;100501.88;1654628;86;20284;-74
2021/04/21 05:48:41;;;;;;;;;;;;;;;12.56;67.36;100503.08;1641721;86;20274;-74
2021/04/21 05:51:25;;;;;;;;;;;;;;;12.78;66.71;100504.67;1652373;86;20457;-74
2021/04/21 05:54:19;;;;;;;;;;;;;;;12.99;67.20;100502.80;1636251;86;20163;-74
2021/04/21 05:56:57;;;;;;;;;;;;;;;13.35;67.02;100506.55;1633457;86;20546;-74
2021/04/21 05:59:44;;;;;;;;;;;;;;;13.51;66.59;100507.81;1608453;88;20261;-74
2021/04/21 06:02:10;;;;;;;;;;;;;;;13.61;66.36;100512.25;1570420;89;20317;-74
2021/04/21 06:04:37;;;;;;;;;;;;;;;13.72;66.28;100513.62;1590407;88;20276;-73
2021/04/21 06:07:07;;;;;;;;;;;;;;;13.88;66.20;100514.86;1595354;87;20293;-74
2021/04/21 06:09:33;;;;;;;;;;;;;;;13.95;65.69;100519.42;1617332;87;20284;-74
2021/04/21 06:12:11;;;;;;;;;;;;;;;14.07;66.22;100519.45;1679470;84;20290;-74
2021/04/21 06:14:39;;;;;;;;;;;;;;;14.33;65.97;100518.16;1642033;85;20319;-74
2021/04/21 06:17:06;;;;;;;;;;;;;;;14.55;65.83;100515.28;1649156;85;20312;-77
2021/04/21 06:19:32;;;;;;;;;;;;;;;14.57;65.38;100512.14;1640409;87;20297;-75
2021/04/21 06:22:02;;;;;;;;;;;;;;;14.62;65.67;100513.74;1622798;87;20291;-74
2021/04/21 06:24:30;;;;;;;;;;;;;;;14.82;65.68;100505.65;1634443;87;20316;-74
2021/04/21 06:27:10;;;;;;;;;;;;;;;14.99;65.46;100509.41;1686253;84;20183;-74
2021/04/21 06:29:36;;;;;;;;;;;;;;;15.09;65.26;100508.15;1683851;84;20200;-74
2021/04/21 06:32:04;;;;;;;;;;;;;;;15.21;65.40;100508.55;1688557;84;20252;-74
2021/04/21 06:34:30;;;;;;;;;;;;;;;15.32;65.29;100507.31;1672601;84;20275;-74
2021/04/21 06:36:58;;;;;;;;;;;;;;;15.43;64.79;100508.61;1682259;84;20268;-74
2021/04/21 06:39:25;;;;;;;;;;;;;;;15.49;65.17;100502.31;1675762;84;20179;-74
2021/04/21 06:41:57;;;;;;;;;;;;;;;15.67;64.88;100506.83;1682800;85;20457;-74
2021/04/21 06:44:32;;;;;;;;;;;;;;;15.82;65.02;100512.75;1678154;85;20286;-73
2021/04/21 06:47:08;;;;;;;;;;;;;;;16.01;64.83;100505.52;1665635;85;20226;-74
2021/04/21 06:49:34;;;;;;;;;;;;;;;16.21;64.70;100506.83;1670839;84;20494;-74
2021/04/21 06:52:14;;;;;;;;;;;;;;;16.27;64.70;100505.73;1680183;83;20179;-74
2021/04/21 06:54:40;;;;;;;;;;;;;;;16.19;64.89;100504.73;1700269;83;20171;-73
2021/04/21 06:57:07;;;;;;;;;;;;;;;16.17;64.91;100503.95;1680840;83;20269;-74
2021/04/21 06:59:33;;;;;;;;;;;;;;;16.21;65.00;100505.07;1697721;84;20164;-74
2021/04/21 07:01:59;;;;;;;;;;;;;;;16.29;64.68;100506.06;1697145;83;20188;-74
2021/04/21 07:04:25;;;;;;;;;;;;;;;16.40;64.75;100505.16;1688651;84;20164;-74
2021/04/21 07:06:52;;;;;;;;;;;;;;;16.58;64.73;100505.30;1697707;84;20164;-74
2021/04/21 07:09:21;;;;;;;;;;;;;;;16.74;64.72;100503.28;1697533;84;20272;-74
2021/04/21 07:11:56;;;;;;;;;;;;;;;17.00;64.73;100508.68;1675850;84;20170;-76
2021/04/21 07:14:23;;;;;;;;;;;;;;;17.09;64.51;100506.13;1699840;83;20184;-76
2021/04/21 07:16:53;;;;;;;;;;;;;;;17.10;64.33;100503.44;1697819;83;20163;-74
2021/04/21 07:19:19;;;;;;;;;;;;;;;17.15;64.64;100509.31;1694878;83;20636;-74
2021/04/21 07:21:45;;;;;;;;;;;;;;;17.29;64.10;100503.89;1683130;83;20531;-74
2021/04/21 07:24:12;;;;;;;;;;;;;;;17.46;64.13;100506.59;1687281;83;20257;-74
2021/04/21 07:26:44;;;;;;;;;;;;;;;17.60;63.83;100508.10;1678653;83;20190;-74
2021/04/21 07:29:19;;;;;;;;;;;;;;;17.69;63.81;100508.14;1690250;83;20203;-74
2021/04/21 07:31:49;;;;;;;;;;;;;;;17.64;63.72;100513.58;1674568;83;20146;-74
2021/04/21 07:34:30;;;;;;;;;;;;;;;17.63;63.72;100512.34;1693704;83;20175;-74
2021/04/21 07:36:58;;;;;;;;;;;;;;;17.72;63.65;100511.45;1700671;83;20289;-74
2021/04/21 07:39:39;;;;;;;;;;;;;;;17.82;63.68;100513.18;1691952;83;20292;-74
2021/04/21 07:42:17;;;;;;;;;;;;;;;17.84;63.41;100515.27;1703333;83;20183;-74
2021/04/21 07:44:50;;;;;;;;;;;;;;;17.99;63.37;100509.30;1697317;83;20518;-74
2021/04/21 07:47:17;;;;;;;;;;;;;;;17.94;63.02;100507.36;1702693;83;20500;-74
2021/04/21 07:49:46;;;;;;;;;;;;;;;17.98;63.16;100513.30;1697294;83;20831;-74
2021/04/21 07:52:32;;;;;;;;;;;;;;;17.92;62.85;100518.36;1700211;82;20182;-74
2021/04/21 07:55:17;;;;;;;;;;;;;;;17.88;62.95;100516.81;1690868;82;20168;-74
2021/04/21 07:57:46;;;;;;;;;;;;;;;17.88;62.73;100522.50;1701086;83;20534;-74
2021/04/21 08:00:22;;;;;;;;;;;;;;;17.86;62.63;100515.58;1704491;83;20163;-76
2021/04/21 08:02:50;;;;;;;;;;;;;;;17.89;62.92;100510.66;1710967;83;20829;-76
2021/04/21 08:05:16;;;;;;;;;;;;;;;17.72;62.32;100513.22;1692897;83;20202;-76
2021/04/21 08:07:45;;;;;;;;;;;;;;;17.80;62.53;100520.25;1707139;82;20440;-76
2021/04/21 08:10:24;;;;;;;;;;;;;;;17.87;62.33;100521.66;1708754;82;20714;-74
2021/04/21 08:12:51;;;;;;;;;;;;;;;17.79;62.10;100522.02;1698566;82;20552;-74
2021/04/21 08:15:29;;;;;;;;;;;;;;;17.69;62.27;100519.91;1703506;82;20259;-74
2021/04/21 08:18:05;;;;;;;;;;;;;;;17.64;62.23;100520.12;1704857;82;20527;-74
2021/04/21 08:20:41;;;;;;;;;;;;;;;17.62;62.13;100523.27;1702270;82;20179;-74
2021/04/21 08:23:09;;;;;;;;;;;;;;;17.63;62.46;100515.81;1703188;82;20219;-74
2021/04/21 08:25:37;;;;;;;;;;;;;;;17.70;62.00;100515.91;1708237;82;20691;-74
2021/04/21 08:28:04;;;;;;;;;;;;;;;17.56;62.05;100520.08;1706434;82;20592;-73
2021/04/21 08:30:31;;;;;;;;;;;;;;;17.46;62.13;100517.04;1702589;83;20577;-74
2021/04/21 08:32:58;;;;;;;;;;;;;;;17.33;61.97;100518.52;1700505;83;20752;-77
2021/04/21 08:35:24;;;;;;;;;;;;;;;17.10;61.61;100520.88;1677217;84;20282;-77
2021/04/21 08:37:51;;;;;;;;;;;;;;;16.76;61.69;100516.27;1691574;83;20504;-78
2021/04/21 08:40:21;;;;;;;;;;;;;;;16.60;61.81;100516.53;1702232;83;20570;-78
2021/04/21 08:42:51;;;;;;;;;;;;;;;16.44;61.87;100521.09;1685443;84;20494;-78
2021/04/21 08:45:17;;;;;;;;;;;;;;;16.81;61.98;100520.84;1702284;83;20259;-78
2021/04/21 08:47:44;;;;;;;;;;;;;;;17.41;61.63;100520.33;1681054;84;20247;-77
2021/04/21 08:50:11;;;;;;;;;;;;;;;17.85;61.36;100520.42;1703131;84;20892;-77
2021/04/21 08:52:51;;;;;;;;;;;;;;;18.18;61.52;100525.80;1709547;83;20291;-77
2021/04/21 08:55:19;;;;;;;;;;;;;;;18.44;61.38;100526.27;1703476;83;20299;-77
2021/04/21 08:57:45;;;;;;;;;;;;;;;18.26;61.28;100523.25;1712940;82;20232;-77
2021/04/21 09:00:14;;;;;;;;;;;;;;;18.30;61.74;100531.33;1695363;83;20495;-78
2021/04/21 09:02:42;;;;;;;;;;;;;;;18.28;61.71;100523.55;1707925;83;20209;-78
2021/04/21 09:05:09;;;;;;;;;;;;;;;18.33;61.79;100535.95;1729263;82;20528;-78
2021/04/21 09:07:38;;;;;;;;;;;;;;;18.31;61.79;100524.71;1717010;83;20205;-74
2021/04/21 09:10:07;;;;;;;;;;;;;;;18.01;61.60;100534.93;1709798;83;20753;-74
2021/04/21 09:12:33;;;;;;;;;;;;;;;17.37;61.37;100531.84;1688577;83;20260;-74
2021/04/21 09:14:58;;;;;;;;;;;;;;;16.99;61.48;100526.58;1682768;83;20209;-74
2021/04/21 09:17:24;;;;;;;;;;;;;;;16.63;61.34;100522.93;1709643;82;20762;-74
2021/04/21 09:19:50;;;;;;;;;;;;;;;16.30;61.07;100521.27;1703334;83;20217;-74
2021/04/21 09:22:16;;;;;;;;;;;;;;;16.01;61.04;100523.31;1706906;83;20437;-73
2021/04/21 09:24:43;;;;;;;;;;;;;;;15.85;61.08;100524.82;1714166;82;20221;-74
2021/04/21 09:27:34;;;;;;;;;;;;;;;15.79;61.06;100521.15;1717071;82;20655;-74
2021/04/21 09:30:14;;;;;;;;;;;;;;;15.66;60.47;100525.98;1708658;82;20273;-74
2021/04/21 09:32:46;;;;;;;;;;;;;;;15.51;60.42;100519.59;1663668;85;20832;-74
2021/04/21 09:35:26;;;;;;;;;;;;;;;15.39;60.37;100523.11;1695741;83;20466;-74
2021/04/21 09:37:54;;;;;;;;;;;;;;;15.24;60.29;100519.31;1701483;82;20300;-74
2021/04/21 09:40:35;;;;;;;;;;;;;;;15.24;60.45;100523.22;1690911;84;20258;-74
2021/04/21 09:43:02;;;;;;;;;;;;;;;15.15;60.03;100515.28;1697638;83;20313;-74
2021/04/21 09:45:40;;;;;;;;;;;;;;;15.08;60.17;100516.41;1698623;83;20296;-74
2021/04/21 09:48:12;;;;;;;;;;;;;;;15.05;60.24;100510.05;1708998;82;20501;-74
2021/04/21 09:50:41;;;;;;;;;;;;;;;15.03;59.90;100517.06;1693525;83;20679;-74
2021/04/21 09:53:23;;;;;;;;;;;;;;;14.87;59.85;100515.90;1689197;83;20317;-78
2021/04/21 09:56:03;;;;;;;;;;;;;;;14.80;60.01;100512.66;1700179;83;20297;-76
2021/04/21 09:58:33;;;;;;;;;;;;;;;14.85;59.98;100513.35;1713015;82;20297;-76
2021/04/21 10:00:59;;;;;;;;;;;;;;;14.80;59.86;100510.06;1702052;82;20296;-76
2021/04/21 10:03:25;;;;;;;;;;;;;;;14.79;59.84;100510.11;1693850;83;20307;-76
2021/04/21 10:05:51;;;;;;;;;;;;;;;14.69;59.65;100501.77;1711504;82;20226;-76
2021/04/21 10:08:27;;;;;;;;;;;;;;;14.68;59.84;100498.77;1691998;83;307915;-77
2021/04/21 10:11:01;;;;;;;;;;;;;;;14.69;59.54;100500.47;1705293;82;20306;-74
2021/04/21 10:13:43;;;;;;;;;;;;;;;14.66;59.58;100498.42;1705043;82;21104;-74
2021/04/21 10:16:11;;;;;;;;;;;;;;;14.68;59.38;100499.22;1700707;82;20215;-74
2021/04/21 10:18:41;;;;;;;;;;;;;;;14.69;59.37;100501.77;1704219;82;21140;-74
2021/04/21 10:21:07;;;;;;;;;;;;;;;14.69;59.13;100498.31;1709437;82;20420;-74
2021/04/21 10:23:33;;;;;;;;;;;;;;;14.71;59.30;100497.81;1700491;83;20294;-74
2021/04/21 10:26:09;;;;;;;;;;;;;;;14.78;59.05;100488.89;1698529;83;20282;-74
2021/04/21 10:28:40;;;;;;;;;;;;;;;14.83;58.85;100486.97;1700584;83;20258;-74
2021/04/21 10:31:08;;;;;;;;;;;;;;;14.87;58.77;100491.17;1711889;82;20271;-74
2021/04/21 10:33:34;;;;;;;;;;;;;;;14.86;58.27;100494.67;1706488;82;20455;-74
2021/04/21 10:36:00;;;;;;;;;;;;;;;14.82;58.35;100495.69;1700951;83;20283;-75
2021/04/21 10:38:29;;;;;;;;;;;;;;;14.81;57.94;100496.59;1711907;82;20265;-74
2021/04/21 10:41:20;;;;;;;;;;;;;;;14.76;57.79;100490.70;1682272;82;20443;-75
2021/04/21 10:43:46;;;;;;;;;;;;;;;14.82;58.05;100495.23;1672581;84;20270;-74
2021/04/21 10:46:12;;;;;;;;;;;;;;;14.98;57.94;100489.48;1676329;84;20290;-74
2021/04/21 10:48:46;;;;;;;;;;;;;;;15.01;57.85;100486.32;1678485;84;20266;-74
2021/04/21 10:51:38;;;;;;;;;;;;;;;15.08;57.77;100483.01;1676747;84;20319;-74
2021/04/21 10:54:08;;;;;;;;;;;;;;;15.11;57.54;100485.50;1695375;83;20240;-76
2021/04/21 10:56:36;;;;;;;;;;;;;;;15.23;57.45;100490.27;1689616;83;20286;-76
2021/04/21 10:59:03;;;;;;;;;;;;;;;15.24;57.26;100482.39;1697405;83;20268;-79
2021/04/21 11:01:34;;;;;;;;;;;;;;;15.29;57.49;100477.47;1694463;83;20191;-79
2021/04/21 11:04:02;;;;;;;;;;;;;;;15.33;57.34;100476.44;1700333;82;20325;-79
2021/04/21 11:06:43;;;;;;;;;;;;;;;15.41;57.24;100475.25;1714508;82;20262;-78
2021/04/21 11:09:11;;;;;;;;;;;;;;;15.48;57.69;100473.25;1724949;82;20267;-78
2021/04/21 11:11:43;;;;;;;;;;;;;;;15.59;57.05;100478.09;1720701;82;20176;-78
2021/04/21 11:14:13;;;;;;;;;;;;;;;15.65;57.08;100473.91;1706643;82;20298;-78
2021/04/21 11:16:40;;;;;;;;;;;;;;;15.76;57.21;100466.52;1717212;82;20267;-78
2021/04/21 11:19:24;;;;;;;;;;;;;;;15.89;56.68;100469.03;1712042;82;20256;-78
2021/04/21 11:22:18;;;;;;;;;;;;;;;15.84;56.63;100473.12;1693034;82;20256;-78
2021/04/21 11:25:05;;;;;;;;;;;;;;;15.80;56.63;100469.40;1698036;83;20271;-78
2021/04/21 11:27:43;;;;;;;;;;;;;;;15.75;56.51;100464.82;1718843;82;20891;-78
2021/04/21 11:30:36;;;;;;;;;;;;;;;15.86;56.58;100471.77;1714568;82;20161;-78
2021/04/21 11:33:02;;;;;;;;;;;;;;;15.94;56.51;100458.42;1710236;82;20175;-78
2021/04/21 11:35:31;;;;;;;;;;;;;;;16.02;56.58;100457.66;1683538;83;20635;-78
2021/04/21 11:37:57;;;;;;;;;;;;;;;16.04;56.36;100461.90;1676904;83;20303;-78
2021/04/21 11:40:28;;;;;;;;;;;;;;;16.07;56.09;100455.70;1695897;82;20287;-79
2021/04/21 11:43:10;;;;;;;;;;;;;;;16.09;55.77;100452.58;1679043;83;20493;-78
2021/04/21 11:45:37;;;;;;;;;;;;;;;16.05;55.49;100453.62;1640514;85;20300;-78
2021/04/21 11:48:08;;;;;;;;;;;;;;;16.07;55.59;100456.55;1644442;85;20291;-78
2021/04/21 11:50:39;;;;;;;;;;;;;;;16.17;55.59;100456.99;1669132;84;20310;-80
2021/04/21 11:53:14;;;;;;;;;;;;;;;16.25;55.44;100447.09;1694147;83;20363;-79
2021/04/21 11:55:50;;;;;;;;;;;;;;;16.35;55.38;100444.48;1713375;82;20306;-79
2021/04/21 11:58:26;;;;;;;;;;;;;;;16.47;55.76;100453.55;1683504;83;20306;-79
2021/04/21 12:01:01;;;;;;;;;;;;;;;16.56;54.93;100454.47;1650660;84;20672;-79
2021/04/21 12:03:40;;;;;;;;;;;;;;;16.48;54.73;100460.02;1652284;85;20341;-79
2021/04/21 12:06:09;;;;;;;;;;;;;;;16.50;54.93;100456.03;1685974;83;20235;-79
2021/04/21 12:08:40;;;;;;;;;;;;;;;16.59;54.65;100450.87;1701266;83;20288;-79
2021/04/21 12:11:07;;;;;;;;;;;;;;;16.59;55.16;100450.87;1693208;83;20294;-80
2021/04/21 12:13:36;;;;;;;;;;;;;;;16.56;54.06;100454.47;1699987;83;20262;-80
2021/04/21 12:16:15;;;;;;;;;;;;;;;16.37;54.04;100449.19;1694348;83;20265;-80
2021/04/21 12:18:45;;;;;;;;;;;;;;;16.22;53.91;100450.67;1692368;82;20322;-80
2021/04/21 12:21:18;;;;;;;;;;;;;;;16.08;53.93;100453.49;1697348;83;20241;-80
2021/04/21 12:23:47;;;;;;;;;;;;;;;16.02;54.30;100445.92;1695694;82;20194;-79
2021/04/21 12:26:25;;;;;;;;;;;;;;;15.95;53.97;100442.71;1693077;83;20262;-79
2021/04/21 12:28:58;;;;;;;;;;;;;;;15.94;54.10;100438.41;1704045;82;20317;-79
2021/04/21 12:31:26;;;;;;;;;;;;;;;16.00;54.19;100438.16;1702528;82;20390;-79
2021/04/21 12:33:54;;;;;;;;;;;;;;;16.10;54.00;100428.19;1687853;83;20172;-80
2021/04/21 12:36:22;;;;;;;;;;;;;;;16.27;53.83;100433.52;1707794;82;20274;-79
2021/04/21 12:39:13;;;;;;;;;;;;;;;16.40;53.67;100423.41;1706511;82;20164;-79
2021/04/21 12:41:41;;;;;;;;;;;;;;;16.48;53.75;100427.39;1700518;82;20283;-79
2021/04/21 12:44:20;;;;;;;;;;;;;;;16.65;53.66;100420.13;1687082;84;20287;-79
2021/04/21 12:46:48;;;;;;;;;;;;;;;16.76;53.41;100413.98;1702152;83;20275;-79
2021/04/21 12:49:17;;;;;;;;;;;;;;;16.86;53.71;100415.72;1702748;83;20168;-79
2021/04/21 12:51:47;;;;;;;;;;;;;;;17.04;53.42;100420.58;1691996;83;20258;-79
2021/04/21 12:54:34;;;;;;;;;;;;;;;17.17;53.57;100413.37;1714263;82;20269;-79
2021/04/21 12:57:03;;;;;;;;;;;;;;;17.26;53.06;100409.49;1676647;84;20273;-79
2021/04/21 12:59:38;;;;;;;;;;;;;;;17.28;53.16;100410.73;1686161;84;20290;-79
2021/04/21 13:02:04;;;;;;;;;;;;;;;17.32;53.03;100413.58;1688187;84;20244;-79
2021/04/21 13:04:37;;;;;;;;;;;;;;;17.35;52.91;100405.14;1670049;84;20219;-80
2021/04/21 13:07:17;;;;;;;;;;;;;;;17.38;52.85;100402.38;1671039;84;20271;-80
2021/04/21 13:09:44;;;;;;;;;;;;;;;17.42;52.80;100400.01;1661426;84;20300;-79